sensor_id;sensor_type;location;lat;lon;timestamp;pressure;altitude;pressure_sealevel;temperature;humidity
18988;BME280;5494;51.796;10.952;2023-03-16T00:02:15;99480.22;;;0.37;99.68
18988;BME280;5494;51.796;10.952;2023-03-16T00:04:43;99481.06;;;0.43;99.32
18988;BME280;5494;51.796;10.952;2023-03-16T00:07:15;99481.09;;;0.39;99.85
18988;BME280;5494;51.796;10.952;2023-03-16T00:09:43;99481.91;;;0.45;100.00
18988;BME280;5494;51.796;10.952;2023-03-16T00:12:15;99480.22;;;0.45;100.00
18988;BME280;5494;51.796;10.952;2023-03-16T00:14:46;99479.34;;;0.43;99.92
18988;BME280;5494;51.796;10.952;2023-03-16T00:17:18;99477.66;;;0.36;100.00
18988;BME280;5494;51.796;10.952;2023-03-16T00:19:48;99487.00;;;0.52;100.00
18988;BME280;5494;51.796;10.952;2023-03-16T00:22:23;99485.28;;;0.57;100.00
18988;BME280;5494;51.796;10.952;2023-03-16T00:24:54;99484.41;;;0.64;100.00
18988;BME280;5494;51.796;10.952;2023-03-16T00:27:24;99475.00;;;0.69;100.00
18988;BME280;5494;51.796;10.952;2023-03-16T00:29:53;99480.16;;;0.68;100.00
18988;BME280;5494;51.796;10.952;2023-03-16T00:32:25;99477.56;;;0.69;100.00
18988;BME280;5494;51.796;10.952;2023-03-16T00:34:55;99484.44;;;0.61;100.00
18988;BME280;5494;51.796;10.952;2023-03-16T00:37:25;99482.72;;;0.68;100.00
18988;BME280;5494;51.796;10.952;2023-03-16T00:39:54;99490.38;;;0.63;100.00
18988;BME280;5494;51.796;10.952;2023-03-16T00:42:28;99484.41;;;0.67;100.00
18988;BME280;5494;51.796;10.952;2023-03-16T00:44:58;99487.84;;;0.68;100.00
18988;BME280;5494;51.796;10.952;2023-03-16T00:47:29;99475.03;;;0.72;100.00
18988;BME280;5494;51.796;10.952;2023-03-16T00:49:59;99482.66;;;0.82;100.00
18988;BME280;5494;51.796;10.952;2023-03-16T00:52:29;99480.13;;;0.75;100.00
18988;BME280;5494;51.796;10.952;2023-03-16T00:54:57;99482.66;;;0.78;100.00
18988;BME280;5494;51.796;10.952;2023-03-16T00:57:26;99488.66;;;0.76;100.00
18988;BME280;5494;51.796;10.952;2023-03-16T00:59:56;99478.44;;;0.70;100.00
18988;BME280;5494;51.796;10.952;2023-03-16T01:02:25;99481.84;;;0.73;100.00
18988;BME280;5494;51.796;10.952;2023-03-16T01:04:53;99481.84;;;0.70;100.00
18988;BME280;5494;51.796;10.952;2023-03-16T01:07:21;99481.00;;;0.74;100.00
18988;BME280;5494;51.796;10.952;2023-03-16T01:09:51;99486.09;;;0.71;100.00
18988;BME280;5494;51.796;10.952;2023-03-16T01:12:19;99480.16;;;0.63;100.00
18988;BME280;5494;51.796;10.952;2023-03-16T01:14:47;99479.28;;;0.70;100.00
18988;BME280;5494;51.796;10.952;2023-03-16T01:17:16;99479.28;;;0.75;100.00
18988;BME280;5494;51.796;10.952;2023-03-16T01:19:45;99471.59;;;0.75;99.83
18988;BME280;5494;51.796;10.952;2023-03-16T01:22:14;99466.50;;;0.73;100.00
18988;BME280;5494;51.796;10.952;2023-03-16T01:24:43;99473.34;;;0.64;99.88
18988;BME280;5494;51.796;10.952;2023-03-16T01:27:14;99467.41;;;0.62;100.00
18988;BME280;5494;51.796;10.952;2023-03-16T01:29:42;99463.09;;;0.62;100.00
18988;BME280;5494;51.796;10.952;2023-03-16T01:32:11;99452.03;;;0.59;99.92
18988;BME280;5494;51.796;10.952;2023-03-16T01:34:39;99453.75;;;0.57;100.00
18988;BME280;5494;51.796;10.952;2023-03-16T01:37:09;99453.75;;;0.57;99.95
18988;BME280;5494;51.796;10.952;2023-03-16T01:39:57;99455.44;;;0.64;99.16
18988;BME280;5494;51.796;10.952;2023-03-16T01:42:27;99450.31;;;0.62;99.66
18988;BME280;5494;51.796;10.952;2023-03-16T01:44:57;99457.13;;;0.65;99.17
18988;BME280;5494;51.796;10.952;2023-03-16T01:47:37;99450.31;;;0.62;98.53
18988;BME280;5494;51.796;10.952;2023-03-16T01:50:12;99449.47;;;0.63;98.39
18988;BME280;5494;51.796;10.952;2023-03-16T01:52:41;99447.72;;;0.70;97.95
18988;BME280;5494;51.796;10.952;2023-03-16T01:55:11;99445.19;;;0.71;98.30
18988;BME280;5494;51.796;10.952;2023-03-16T01:57:45;99446.06;;;0.67;97.67
18988;BME280;5494;51.796;10.952;2023-03-16T02:00:18;99439.19;;;0.69;97.61
18988;BME280;5494;51.796;10.952;2023-03-16T02:03:10;99428.94;;;0.77;97.27
18988;BME280;5494;51.796;10.952;2023-03-16T02:05:56;99429.81;;;0.71;96.76
18988;BME280;5494;51.796;10.952;2023-03-16T02:08:28;99426.41;;;0.69;96.22
18988;BME280;5494;51.796;10.952;2023-03-16T02:10:58;99416.19;;;0.69;95.95
18988;BME280;5494;51.796;10.952;2023-03-16T02:13:40;99422.97;;;0.76;94.83
18988;BME280;5494;51.796;10.952;2023-03-16T02:16:11;99423.84;;;0.72;95.46
18988;BME280;5494;51.796;10.952;2023-03-16T02:18:40;99424.72;;;0.73;94.73
18988;BME280;5494;51.796;10.952;2023-03-16T02:21:17;99417.00;;;0.79;94.50
18988;BME280;5494;51.796;10.952;2023-03-16T02:23:47;99423.81;;;0.78;94.46
18988;BME280;5494;51.796;10.952;2023-03-16T02:26:24;99416.16;;;0.80;93.54
18988;BME280;5494;51.796;10.952;2023-03-16T02:29:23;99417.00;;;0.79;93.32
18988;BME280;5494;51.796;10.952;2023-03-16T02:31:59;99420.41;;;0.78;92.86
18988;BME280;5494;51.796;10.952;2023-03-16T02:34:29;99417.00;;;0.81;92.31
18988;BME280;5494;51.796;10.952;2023-03-16T02:36:58;99419.56;;;0.77;91.46
18988;BME280;5494;51.796;10.952;2023-03-16T02:39:28;99422.97;;;0.81;91.84
18988;BME280;5494;51.796;10.952;2023-03-16T02:41:56;99421.25;;;0.85;91.44
18988;BME280;5494;51.796;10.952;2023-03-16T02:44:30;99429.81;;;0.71;91.55
18988;BME280;5494;51.796;10.952;2023-03-16T02:47:12;99433.25;;;0.72;90.91
18988;BME280;5494;51.796;10.952;2023-03-16T02:49:44;99423.84;;;0.72;91.32
18988;BME280;5494;51.796;10.952;2023-03-16T02:52:12;99439.16;;;0.83;89.99
18988;BME280;5494;51.796;10.952;2023-03-16T02:54:40;99444.28;;;0.77;89.72
18988;BME280;5494;51.796;10.952;2023-03-16T02:57:09;99446.88;;;0.69;89.83
18988;BME280;5494;51.796;10.952;2023-03-16T02:59:37;99442.66;;;0.67;90.54
18988;BME280;5494;51.796;10.952;2023-03-16T03:02:07;99440.94;;;0.67;90.28
18988;BME280;5494;51.796;10.952;2023-03-16T03:04:37;99437.53;;;0.68;90.55
18988;BME280;5494;51.796;10.952;2023-03-16T03:07:05;99439.22;;;0.66;90.50
18988;BME280;5494;51.796;10.952;2023-03-16T03:09:51;99430.72;;;0.58;90.74
18988;BME280;5494;51.796;10.952;2023-03-16T03:12:20;99431.59;;;0.54;90.71
18988;BME280;5494;51.796;10.952;2023-03-16T03:14:48;99427.34;;;0.50;90.51
18988;BME280;5494;51.796;10.952;2023-03-16T03:17:20;99420.50;;;0.61;90.23
18988;BME280;5494;51.796;10.952;2023-03-16T03:19:56;99420.50;;;0.60;89.48
18988;BME280;5494;51.796;10.952;2023-03-16T03:22:25;99423.91;;;0.57;89.03
18988;BME280;5494;51.796;10.952;2023-03-16T03:24:54;99423.94;;;0.54;89.40
18988;BME280;5494;51.796;10.952;2023-03-16T03:27:21;99427.34;;;0.53;89.50
18988;BME280;5494;51.796;10.952;2023-03-16T03:29:52;99423.09;;;0.52;89.05
18988;BME280;5494;51.796;10.952;2023-03-16T03:32:21;99420.56;;;0.46;89.09
18988;BME280;5494;51.796;10.952;2023-03-16T03:34:50;99418.00;;;0.38;89.88
18988;BME280;5494;51.796;10.952;2023-03-16T03:37:18;99425.69;;;0.40;89.79
18988;BME280;5494;51.796;10.952;2023-03-16T03:39:47;99424.00;;;0.33;89.82
18988;BME280;5494;51.796;10.952;2023-03-16T03:42:16;99424.84;;;0.30;89.83
18988;BME280;5494;51.796;10.952;2023-03-16T03:44:45;99419.75;;;0.32;89.69
18988;BME280;5494;51.796;10.952;2023-03-16T03:47:13;99416.25;;;0.57;88.38
18988;BME280;5494;51.796;10.952;2023-03-16T03:49:43;99415.47;;;0.38;89.01
18988;BME280;5494;51.796;10.952;2023-03-16T03:52:11;99413.78;;;0.27;89.52
18988;BME280;5494;51.796;10.952;2023-03-16T03:54:39;99420.56;;;0.28;89.41
18988;BME280;5494;51.796;10.952;2023-03-16T03:57:15;99425.69;;;0.38;89.10
18988;BME280;5494;51.796;10.952;2023-03-16T03:59:46;99418.84;;;0.42;88.84
18988;BME280;5494;51.796;10.952;2023-03-16T04:02:33;99423.13;;;0.28;89.33
18988;BME280;5494;51.796;10.952;2023-03-16T04:05:06;99435.09;;;0.18;90.39
18988;BME280;5494;51.796;10.952;2023-03-16T04:07:34;99433.38;;;0.34;90.33
18988;BME280;5494;51.796;10.952;2023-03-16T04:10:07;99427.44;;;0.27;90.41
18988;BME280;5494;51.796;10.952;2023-03-16T04:12:38;99428.28;;;0.25;90.69
18988;BME280;5494;51.796;10.952;2023-03-16T04:15:10;99435.13;;;0.12;90.99
18988;BME280;5494;51.796;10.952;2023-03-16T04:17:49;99421.44;;;0.30;90.05
18988;BME280;5494;51.796;10.952;2023-03-16T04:20:19;99422.31;;;0.18;89.97
18988;BME280;5494;51.796;10.952;2023-03-16T04:22:49;99424.03;;;0.18;89.88
18988;BME280;5494;51.796;10.952;2023-03-16T04:25:26;99419.75;;;0.27;88.91
18988;BME280;5494;51.796;10.952;2023-03-16T04:27:57;99419.72;;;0.38;87.87
18988;BME280;5494;51.796;10.952;2023-03-16T04:30:28;99418.84;;;0.44;87.25
18988;BME280;5494;51.796;10.952;2023-03-16T04:33:06;99411.19;;;0.47;86.32
18988;BME280;5494;51.796;10.952;2023-03-16T04:35:36;99414.56;;;0.53;86.06
18988;BME280;5494;51.796;10.952;2023-03-16T04:38:04;99416.25;;;0.57;85.05
18988;BME280;5494;51.796;10.952;2023-03-16T04:40:40;99411.94;;;0.65;84.85
18988;BME280;5494;51.796;10.952;2023-03-16T04:43:13;99409.38;;;0.67;83.72
18988;BME280;5494;51.796;10.952;2023-03-16T04:45:42;99410.25;;;0.67;83.61
18988;BME280;5494;51.796;10.952;2023-03-16T04:48:11;99400.91;;;0.60;83.71
18988;BME280;5494;51.796;10.952;2023-03-16T04:50:40;99404.25;;;0.71;83.91
18988;BME280;5494;51.796;10.952;2023-03-16T04:53:09;99406.81;;;0.73;83.45
18988;BME280;5494;51.796;10.952;2023-03-16T04:55:37;99417.03;;;0.76;82.62
18988;BME280;5494;51.796;10.952;2023-03-16T04:58:05;99415.28;;;0.79;81.80
18988;BME280;5494;51.796;10.952;2023-03-16T05:00:37;99416.13;;;0.83;82.00
18988;BME280;5494;51.796;10.952;2023-03-16T05:03:10;99416.16;;;0.82;82.08
18988;BME280;5494;51.796;10.952;2023-03-16T05:05:41;99413.56;;;0.88;81.23
18988;BME280;5494;51.796;10.952;2023-03-16T05:08:10;99424.63;;;0.91;81.17
18988;BME280;5494;51.796;10.952;2023-03-16T05:10:40;99422.06;;;0.93;81.11
18988;BME280;5494;51.796;10.952;2023-03-16T05:13:08;99419.53;;;0.88;81.30
18988;BME280;5494;51.796;10.952;2023-03-16T05:15:37;99425.50;;;0.89;81.42
18988;BME280;5494;51.796;10.952;2023-03-16T05:18:24;99427.19;;;0.91;81.88
18988;BME280;5494;51.796;10.952;2023-03-16T05:20:55;99430.59;;;0.93;82.12
18988;BME280;5494;51.796;10.952;2023-03-16T05:23:30;99424.63;;;0.91;81.92
18988;BME280;5494;51.796;10.952;2023-03-16T05:26:02;99428.88;;;0.91;82.17
18988;BME280;5494;51.796;10.952;2023-03-16T05:28:32;99428.88;;;0.92;81.61
18988;BME280;5494;51.796;10.952;2023-03-16T05:31:03;99428.03;;;0.95;82.35
18988;BME280;5494;51.796;10.952;2023-03-16T05:33:37;99425.41;;;1.07;81.56
18988;BME280;5494;51.796;10.952;2023-03-16T05:36:10;99428.78;;;1.12;81.49
18988;BME280;5494;51.796;10.952;2023-03-16T05:38:40;99427.91;;;1.13;81.41
18988;BME280;5494;51.796;10.952;2023-03-16T05:41:13;99433.03;;;1.13;80.89
18988;BME280;5494;51.796;10.952;2023-03-16T05:43:51;99430.44;;;1.24;81.53
18988;BME280;5494;51.796;10.952;2023-03-16T05:46:21;99427.66;;;1.52;80.99
18988;BME280;5494;51.796;10.952;2023-03-16T05:48:50;99432.56;;;1.80;78.58
18988;BME280;5494;51.796;10.952;2023-03-16T05:51:24;99441.75;;;2.07;77.79
18988;BME280;5494;51.796;10.952;2023-03-16T05:53:54;99439.00;;;2.26;75.88
18988;BME280;5494;51.796;10.952;2023-03-16T05:56:32;99442.22;;;2.45;74.86
18988;BME280;5494;51.796;10.952;2023-03-16T05:59:03;99441.13;;;2.64;73.39
18988;BME280;5494;51.796;10.952;2023-03-16T06:01:31;99434.88;;;2.87;72.30
18988;BME280;5494;51.796;10.952;2023-03-16T06:04:01;99434.75;;;2.97;71.60
18988;BME280;5494;51.796;10.952;2023-03-16T06:06:36;99437.09;;;3.12;70.95
18988;BME280;5494;51.796;10.952;2023-03-16T06:09:10;99435.06;;;3.39;69.66
18988;BME280;5494;51.796;10.952;2023-03-16T06:11:38;99432.34;;;3.46;68.47
18988;BME280;5494;51.796;10.952;2023-03-16T06:14:06;99437.25;;;3.63;66.61
18988;BME280;5494;51.796;10.952;2023-03-16T06:16:35;99439.69;;;3.72;66.10
18988;BME280;5494;51.796;10.952;2023-03-16T06:19:03;99435.53;;;3.64;65.58
18988;BME280;5494;51.796;10.952;2023-03-16T06:21:32;99434.53;;;3.72;65.61
18988;BME280;5494;51.796;10.952;2023-03-16T06:24:08;99428.25;;;3.88;65.98
18988;BME280;5494;51.796;10.952;2023-03-16T06:26:36;99439.00;;;4.12;64.26
18988;BME280;5494;51.796;10.952;2023-03-16T06:29:06;99437.91;;;4.26;63.73
18988;BME280;5494;51.796;10.952;2023-03-16T06:31:36;99426.59;;;4.35;62.25
18988;BME280;5494;51.796;10.952;2023-03-16T06:34:05;99434.13;;;4.44;61.75
18988;BME280;5494;51.796;10.952;2023-03-16T06:36:33;99429.00;;;4.43;61.79
18988;BME280;5494;51.796;10.952;2023-03-16T06:39:03;99433.22;;;4.48;61.00
18988;BME280;5494;51.796;10.952;2023-03-16T06:41:40;99422.44;;;4.71;61.02
18988;BME280;5494;51.796;10.952;2023-03-16T06:44:11;99422.72;;;4.99;59.34
18988;BME280;5494;51.796;10.952;2023-03-16T06:46:49;99435.69;;;5.34;58.06
18988;BME280;5494;51.796;10.952;2023-03-16T06:49:17;99427.00;;;5.75;56.30
18988;BME280;5494;51.796;10.952;2023-03-16T06:51:45;99430.38;;;6.14;53.63
18988;BME280;5494;51.796;10.952;2023-03-16T06:54:13;99423.50;;;6.46;52.37
18988;BME280;5494;51.796;10.952;2023-03-16T06:56:43;99424.38;;;6.77;52.39
18988;BME280;5494;51.796;10.952;2023-03-16T06:59:12;99417.00;;;7.22;51.07
18988;BME280;5494;51.796;10.952;2023-03-16T07:01:43;99423.72;;;7.56;47.89
18988;BME280;5494;51.796;10.952;2023-03-16T07:04:11;99421.31;;;7.77;47.42
18988;BME280;5494;51.796;10.952;2023-03-16T07:06:40;99428.53;;;7.94;46.04
18988;BME280;5494;51.796;10.952;2023-03-16T07:09:08;99421.06;;;8.11;46.27
18988;BME280;5494;51.796;10.952;2023-03-16T07:11:38;99410.19;;;8.51;44.70
18988;BME280;5494;51.796;10.952;2023-03-16T07:14:07;99416.38;;;8.95;43.51
18988;BME280;5494;51.796;10.952;2023-03-16T07:16:36;99413.53;;;9.46;41.94
18988;BME280;5494;51.796;10.952;2023-03-16T07:19:06;99423.25;;;9.63;41.39
18988;BME280;5494;51.796;10.952;2023-03-16T07:21:33;99431.34;;;8.87;41.64
18988;BME280;5494;51.796;10.952;2023-03-16T07:24:10;99428.06;;;8.59;41.95
18988;BME280;5494;51.796;10.952;2023-03-16T07:26:40;99422.97;;;7.80;42.79
18988;BME280;5494;51.796;10.952;2023-03-16T07:29:14;99426.56;;;6.91;43.64
18988;BME280;5494;51.796;10.952;2023-03-16T07:31:43;99435.88;;;6.96;43.97
18988;BME280;5494;51.796;10.952;2023-03-16T07:34:16;99440.53;;;6.53;44.01
18988;BME280;5494;51.796;10.952;2023-03-16T07:36:50;99430.59;;;6.70;45.92
18988;BME280;5494;51.796;10.952;2023-03-16T07:39:19;99435.53;;;7.08;44.51
18988;BME280;5494;51.796;10.952;2023-03-16T07:41:49;99432.38;;;7.27;43.45
18988;BME280;5494;51.796;10.952;2023-03-16T07:44:30;99433.69;;;6.83;44.19
18988;BME280;5494;51.796;10.952;2023-03-16T07:46:58;99427.59;;;7.15;42.22
18988;BME280;5494;51.796;10.952;2023-03-16T07:49:28;99449.28;;;7.38;42.30
18988;BME280;5494;51.796;10.952;2023-03-16T07:51:58;99450.56;;;7.25;43.19
18988;BME280;5494;51.796;10.952;2023-03-16T07:54:35;99449.94;;;6.55;44.30
18988;BME280;5494;51.796;10.952;2023-03-16T07:57:05;99450.47;;;6.36;45.80
18988;BME280;5494;51.796;10.952;2023-03-16T07:59:40;99439.50;;;6.60;46.48
18988;BME280;5494;51.796;10.952;2023-03-16T08:02:13;99448.19;;;7.18;43.19
18988;BME280;5494;51.796;10.952;2023-03-16T08:04:42;99439.28;;;7.26;43.39
18988;BME280;5494;51.796;10.952;2023-03-16T08:07:13;99445.16;;;7.33;42.90
18988;BME280;5494;51.796;10.952;2023-03-16T08:10:09;99448.59;;;7.87;40.32
18988;BME280;5494;51.796;10.952;2023-03-16T08:12:44;99450.44;;;8.61;38.22
18988;BME280;5494;51.796;10.952;2023-03-16T08:15:13;99435.78;;;9.07;38.95
18988;BME280;5494;51.796;10.952;2023-03-16T08:17:45;99444.84;;;9.42;35.84
18988;BME280;5494;51.796;10.952;2023-03-16T08:20:23;99441.84;;;9.74;34.25
18988;BME280;5494;51.796;10.952;2023-03-16T08:22:52;99447.53;;;10.04;34.83
18988;BME280;5494;51.796;10.952;2023-03-16T08:25:24;99436.69;;;10.96;33.50
18988;BME280;5494;51.796;10.952;2023-03-16T08:28:02;99442.78;;;11.89;31.62
18988;BME280;5494;51.796;10.952;2023-03-16T08:30:32;99443.66;;;12.23;31.03
18988;BME280;5494;51.796;10.952;2023-03-16T08:33:19;99438.38;;;11.53;32.90
18988;BME280;5494;51.796;10.952;2023-03-16T08:35:50;99445.59;;;11.65;29.54
18988;BME280;5494;51.796;10.952;2023-03-16T08:38:19;99453.47;;;11.82;30.18
18988;BME280;5494;51.796;10.952;2023-03-16T08:40:49;99448.56;;;12.30;29.08
18988;BME280;5494;51.796;10.952;2023-03-16T08:43:19;99443.38;;;12.62;29.29
18988;BME280;5494;51.796;10.952;2023-03-16T08:45:50;99447.50;;;12.84;28.71
18988;BME280;5494;51.796;10.952;2023-03-16T08:48:21;99440.75;;;13.13;26.76
18988;BME280;5494;51.796;10.952;2023-03-16T08:50:50;99450.34;;;12.62;27.43
18988;BME280;5494;51.796;10.952;2023-03-16T08:53:20;99446.59;;;11.81;27.84
18988;BME280;5494;51.796;10.952;2023-03-16T08:55:48;99447.91;;;10.78;29.08
18988;BME280;5494;51.796;10.952;2023-03-16T08:58:16;99440.59;;;10.47;30.04
18988;BME280;5494;51.796;10.952;2023-03-16T09:00:44;99450.25;;;9.81;29.84
18988;BME280;5494;51.796;10.952;2023-03-16T09:03:17;99454.34;;;9.65;31.36
18988;BME280;5494;51.796;10.952;2023-03-16T09:05:48;99452.53;;;9.88;31.25
18988;BME280;5494;51.796;10.952;2023-03-16T09:08:17;99450.53;;;9.73;31.22
18988;BME280;5494;51.796;10.952;2023-03-16T09:10:46;99445.84;;;10.25;30.77
18988;BME280;5494;51.796;10.952;2023-03-16T09:13:14;99452.94;;;10.42;31.27
18988;BME280;5494;51.796;10.952;2023-03-16T09:15:42;99450.56;;;10.76;30.59
18988;BME280;5494;51.796;10.952;2023-03-16T09:18:17;99454.44;;;10.47;29.99
18988;BME280;5494;51.796;10.952;2023-03-16T09:20:45;99450.34;;;10.21;29.61
18988;BME280;5494;51.796;10.952;2023-03-16T09:23:13;99463.53;;;9.73;30.83
18988;BME280;5494;51.796;10.952;2023-03-16T09:25:41;99467.09;;;9.47;32.57
18988;BME280;5494;51.796;10.952;2023-03-16T09:28:09;99457.25;;;9.79;30.64
18988;BME280;5494;51.796;10.952;2023-03-16T09:30:38;99467.59;;;9.35;30.75
18988;BME280;5494;51.796;10.952;2023-03-16T09:33:06;99458.19;;;9.55;30.96
18988;BME280;5494;51.796;10.952;2023-03-16T09:35:36;99467.16;;;9.24;31.08
18988;BME280;5494;51.796;10.952;2023-03-16T09:38:04;99463.44;;;9.08;31.36
18988;BME280;5494;51.796;10.952;2023-03-16T09:40:35;99467.56;;;8.90;30.58
18988;BME280;5494;51.796;10.952;2023-03-16T09:43:19;99467.81;;;8.83;31.28
18988;BME280;5494;51.796;10.952;2023-03-16T09:46:02;99454.09;;;9.04;31.00
18988;BME280;5494;51.796;10.952;2023-03-16T09:48:36;99460.72;;;8.88;31.26
18988;BME280;5494;51.796;10.952;2023-03-16T09:51:16;99458.78;;;8.93;31.63
18988;BME280;5494;51.796;10.952;2023-03-16T09:53:51;99454.31;;;8.98;30.79
18988;BME280;5494;51.796;10.952;2023-03-16T09:56:32;99459.16;;;8.84;30.79
18988;BME280;5494;51.796;10.952;2023-03-16T09:59:10;99454.78;;;8.61;31.52
18988;BME280;5494;51.796;10.952;2023-03-16T10:01:49;99459.28;;;8.56;31.99
18988;BME280;5494;51.796;10.952;2023-03-16T10:04:37;99467.63;;;8.39;32.81
18988;BME280;5494;51.796;10.952;2023-03-16T10:07:23;99449.59;;;8.36;32.70
18988;BME280;5494;51.796;10.952;2023-03-16T10:09:57;99459.88;;;8.38;32.60
18988;BME280;5494;51.796;10.952;2023-03-16T10:12:34;99447.09;;;8.33;33.08
18988;BME280;5494;51.796;10.952;2023-03-16T10:15:12;99457.09;;;8.17;32.70
18988;BME280;5494;51.796;10.952;2023-03-16T10:17:49;99450.03;;;8.22;32.97
18988;BME280;5494;51.796;10.952;2023-03-16T10:20:20;99439.75;;;7.95;30.93
18988;BME280;5494;51.796;10.952;2023-03-16T10:22:52;99439.44;;;7.77;29.94
18988;BME280;5494;51.796;10.952;2023-03-16T10:25:26;99442.03;;;7.77;30.49
18988;BME280;5494;51.796;10.952;2023-03-16T10:27:58;99437.94;;;7.70;29.73
18988;BME280;5494;51.796;10.952;2023-03-16T10:30:30;99430.78;;;7.78;29.95
18988;BME280;5494;51.796;10.952;2023-03-16T10:33:02;99436.25;;;7.96;30.76
18988;BME280;5494;51.796;10.952;2023-03-16T10:35:43;99428.91;;;7.82;28.84
18988;BME280;5494;51.796;10.952;2023-03-16T10:38:29;99417.16;;;7.73;30.43
18988;BME280;5494;51.796;10.952;2023-03-16T10:40:59;99421.13;;;7.83;30.37
18988;BME280;5494;51.796;10.952;2023-03-16T10:43:28;99429.94;;;7.78;29.48
18988;BME280;5494;51.796;10.952;2023-03-16T10:45:59;99426.97;;;7.88;31.00
18988;BME280;5494;51.796;10.952;2023-03-16T10:48:31;99418.41;;;8.13;31.74
18988;BME280;5494;51.796;10.952;2023-03-16T10:51:05;99423.91;;;8.04;30.80
18988;BME280;5494;51.796;10.952;2023-03-16T10:53:41;99416.13;;;7.77;28.97
18988;BME280;5494;51.796;10.952;2023-03-16T10:56:12;99417.91;;;7.75;30.98
18988;BME280;5494;51.796;10.952;2023-03-16T10:58:46;99408.91;;;7.61;30.11
18988;BME280;5494;51.796;10.952;2023-03-16T11:01:18;99403.19;;;7.51;31.12
18988;BME280;5494;51.796;10.952;2023-03-16T11:03:50;99410.09;;;7.50;31.84
18988;BME280;5494;51.796;10.952;2023-03-16T11:06:24;99412.13;;;7.41;31.88
18988;BME280;5494;51.796;10.952;2023-03-16T11:09:06;99410.75;;;7.57;32.52
18988;BME280;5494;51.796;10.952;2023-03-16T11:11:35;99409.41;;;7.45;33.13
18988;BME280;5494;51.796;10.952;2023-03-16T11:14:11;99399.63;;;7.27;33.47
18988;BME280;5494;51.796;10.952;2023-03-16T11:16:45;99394.25;;;7.33;35.33
18988;BME280;5494;51.796;10.952;2023-03-16T11:19:20;99387.31;;;7.35;35.09
18988;BME280;5494;51.796;10.952;2023-03-16T11:21:56;99403.28;;;7.48;35.59
18988;BME280;5494;51.796;10.952;2023-03-16T11:24:37;99413.16;;;7.63;36.41
18988;BME280;5494;51.796;10.952;2023-03-16T11:27:21;99391.50;;;7.66;35.87
18988;BME280;5494;51.796;10.952;2023-03-16T11:30:02;99391.97;;;7.52;36.04
18988;BME280;5494;51.796;10.952;2023-03-16T11:32:35;99381.63;;;7.52;37.14
18988;BME280;5494;51.796;10.952;2023-03-16T11:35:15;99382.22;;;7.60;38.05
18988;BME280;5494;51.796;10.952;2023-03-16T11:38:07;99373.03;;;7.50;39.39
18988;BME280;5494;51.796;10.952;2023-03-16T11:40:54;99371.34;;;7.49;37.27
18988;BME280;5494;51.796;10.952;2023-03-16T11:43:49;99367.66;;;7.56;37.72
18988;BME280;5494;51.796;10.952;2023-03-16T11:46:22;99359.59;;;7.67;36.90
18988;BME280;5494;51.796;10.952;2023-03-16T11:49:12;99351.19;;;7.60;36.77
18988;BME280;5494;51.796;10.952;2023-03-16T11:51:52;99351.34;;;7.54;36.11
18988;BME280;5494;51.796;10.952;2023-03-16T11:54:43;99343.47;;;7.59;36.72
18988;BME280;5494;51.796;10.952;2023-03-16T11:57:32;99345.69;;;7.69;36.44
18988;BME280;5494;51.796;10.952;2023-03-16T12:00:26;99350.13;;;7.66;36.68
18988;BME280;5494;51.796;10.952;2023-03-16T12:03:23;99339.78;;;7.66;37.68
18988;BME280;5494;51.796;10.952;2023-03-16T12:06:01;99348.78;;;7.80;39.37
18988;BME280;5494;51.796;10.952;2023-03-16T12:12:25;99339.94;;;7.86;39.28
18988;BME280;5494;51.796;10.952;2023-03-16T12:15:14;99334.34;;;7.98;38.16
18988;BME280;5494;51.796;10.952;2023-03-16T12:17:48;99324.38;;;7.87;39.76
18988;BME280;5494;51.796;10.952;2023-03-16T12:20:23;99316.28;;;7.97;37.72
18988;BME280;5494;51.796;10.952;2023-03-16T12:23:01;99316.13;;;8.01;36.29
18988;BME280;5494;51.796;10.952;2023-03-16T12:25:38;99322.56;;;7.89;36.37
18988;BME280;5494;51.796;10.952;2023-03-16T12:28:20;99294.03;;;7.91;38.13
18988;BME280;5494;51.796;10.952;2023-03-16T12:30:59;99299.97;;;7.95;37.81
18988;BME280;5494;51.796;10.952;2023-03-16T12:33:49;99308.00;;;7.87;39.04
18988;BME280;5494;51.796;10.952;2023-03-16T12:37:00;99299.59;;;7.80;38.82
18988;BME280;5494;51.796;10.952;2023-03-16T12:39:58;99284.84;;;7.82;38.71
18988;BME280;5494;51.796;10.952;2023-03-16T12:43:14;99297.22;;;7.99;39.57
18988;BME280;5494;51.796;10.952;2023-03-16T12:45:51;99321.16;;;7.81;40.45
18988;BME280;5494;51.796;10.952;2023-03-16T12:48:29;99303.81;;;7.83;39.46
18988;BME280;5494;51.796;10.952;2023-03-16T12:51:02;99305.16;;;7.95;39.66
18988;BME280;5494;51.796;10.952;2023-03-16T12:53:43;99301.75;;;7.93;41.58
18988;BME280;5494;51.796;10.952;2023-03-16T12:56:14;99301.28;;;8.06;41.62
18988;BME280;5494;51.796;10.952;2023-03-16T12:58:48;99296.69;;;8.14;39.04
18988;BME280;5494;51.796;10.952;2023-03-16T13:01:26;99287.72;;;8.00;39.38
18988;BME280;5494;51.796;10.952;2023-03-16T13:04:01;99284.69;;;8.12;41.27
18988;BME280;5494;51.796;10.952;2023-03-16T13:06:35;99280.34;;;8.12;40.62
18988;BME280;5494;51.796;10.952;2023-03-16T13:09:05;99277.44;;;8.21;39.71
18988;BME280;5494;51.796;10.952;2023-03-16T13:11:44;99276.00;;;8.13;40.90
18988;BME280;5494;51.796;10.952;2023-03-16T13:14:36;99273.59;;;8.08;41.98
18988;BME280;5494;51.796;10.952;2023-03-16T13:17:27;99288.63;;;8.22;41.79
18988;BME280;5494;51.796;10.952;2023-03-16T13:20:24;99273.31;;;8.16;42.33
18988;BME280;5494;51.796;10.952;2023-03-16T13:23:19;99258.59;;;8.16;42.61
18988;BME280;5494;51.796;10.952;2023-03-16T13:26:04;99250.47;;;8.27;42.33
18988;BME280;5494;51.796;10.952;2023-03-16T13:28:36;99241.41;;;8.39;42.98
18988;BME280;5494;51.796;10.952;2023-03-16T13:31:22;99259.81;;;8.54;43.30
18988;BME280;5494;51.796;10.952;2023-03-16T13:33:54;99242.09;;;8.65;39.38
18988;BME280;5494;51.796;10.952;2023-03-16T13:36:25;99247.53;;;8.59;40.41
18988;BME280;5494;51.796;10.952;2023-03-16T13:39:04;99253.38;;;8.64;41.79
18988;BME280;5494;51.796;10.952;2023-03-16T13:41:33;99243.19;;;8.60;41.88
18988;BME280;5494;51.796;10.952;2023-03-16T13:44:03;99248.00;;;8.47;41.89
18988;BME280;5494;51.796;10.952;2023-03-16T13:46:33;99250.63;;;8.46;42.26
18988;BME280;5494;51.796;10.952;2023-03-16T13:49:01;99245.97;;;8.55;41.45